EGPD/ABZ METAR and TAF weather

Enter ICAO airport designator
Station Type Date Time Source
EGPD METAR 2022/01/19 19:50 UTC NOAA

EGPD 191950Z AUTO 34021G35KT 9999 FEW016 BKN020 03/00 Q1027 TEMPO 4000 SHRASN


Station Type Date Time Source
EGPD Decoded METAR 2022/01/19 19:50 UTC NOAA

Aberdeen / Dyce, United Kingdom (EGPD) 57-12N 002-13W 0M
Jan 19, 2022 - 02:50 PM EST / 2022.01.19 1950 UTC
Wind: from the NNW (340 degrees) at 24 MPH (21 KT) gusting to 40 MPH (35 KT):0
Visibility: greater than 7 mile(s):0
Sky conditions: mostly cloudy
Temperature: 37 F (3 C)
Dew Point: 32 F (0 C)
Relative Humidity: 80%
Pressure (altimeter): 30.33 in. Hg (1027 hPa)
ob: EGPD 191950Z AUTO 34021G35KT 9999 FEW016 BKN020 03/00 Q1027 TEMPO 4000 SHRASN
cycle: 20

Station Type Date Time Source
EGPD TAF 2022/01/19 18:09 UTC NOAA

TAF EGPD 191656Z 1918/2018 32013KT 9999 BKN040
TEMPO 1918/2008 35015G25KT 5000 -SHRASN PROB30
TEMPO 1918/1921 35025G35KT PROB30
TEMPO 1921/2012 2000 SHSN BKN004

Example: see airport list